Kezdőlap
METAR-TAF:

METAR-TAF

Repülőterek :

Anoka County-Blaine Airport (Janes Field)

Minneapolis-Blaine, Minnesota, Amerikai Egyesült Államok

földrajzi szélesség: 45-09N, földrajzi hosszúság: 093-13W, magasság: 278 m

Jelenlegi meteorológiai megfigyelések

A jelentés 35 perccel ezelõtt készült, 16:45 UTC
Észak-északkeleti szél 6 kt
Hőmérséklet 13°C
Páratartalom 28%
Légköri nyomás 1029 hPa
Látótávolság: 16.1 km
Szórványos felhőzet 7000 lábon

METAR: KANE 111645Z 02006KT 10SM SCT070 13/M05 A3040

Idő: 12:20 (17:20 UTC)


TAF: hiányzik

Meteorológiai megfigyelések és előrejelzések több, mint 4000 repülőtéren (METAR és TAF jelentéseket).

A térképen piros és sárga pontok jelzik az elérhető meteorológiai állomásokat.

Mozgassa az egeret a pont fölött, hogy megjelenjen az állomás neve.

Azután kattintson az időjárási megfigyelések és előrejelzések megtekintéséhez.

A térkép megváltoztatása: kattintson a fekete keresztel jelölt zöld gombra ráközelítéshez, a vonallal jelölt zöld gombra távolításhoz, vagy a zöld nyilakra a szomszédos térképek eléréséhez.


METAR-TAF: